Time;durP1;ratioP1;P1;durP2;ratioP2;P2;SDS_P1;SDS_P2;PMS_P1;PMS_P2;Temp;Humidity;BMP_temperature;BMP_pressure;BME280_temperature;BME280_humidity;BME280_pressure;Samples;Min_cycle;Max_cycle;Signal;HPM_P1;HPM_P2
2023/04/01 00:01:54;;;;;;;;;7.75;6.00;;;;;16.19;46.83;100455.66;146619;656;47012;-80
2023/04/01 00:04:48;;;;;;;;;6.25;5.25;;;;;16.18;46.89;100465.25;146615;572;47012;-80
2023/04/01 00:07:54;;;;;;;;;6.75;5.00;;;;;16.16;46.66;100465.19;146618;564;46020;-80
2023/04/01 00:10:58;;;;;;;;;5.50;4.50;;;;;16.13;46.34;100459.88;146614;579;46016;-79
2023/04/01 00:14:10;;;;;;;;;;;;;;;;;;;;;
2023/04/01 00:17:12;;;;;;;;;6.50;3.00;;;;;16.15;46.58;100463.44;146617;644;46912;-76
2023/04/01 00:20:14;;;;;;;;;4.25;4.00;;;;;16.14;47.35;100459.06;146621;626;46010;-76
2023/04/01 00:23:15;;;;;;;;;3.75;2.75;;;;;16.08;48.30;100448.44;146618;682;46012;-78
2023/04/01 00:26:20;;;;;;;;;2.00;2.00;;;;;16.05;47.64;100457.94;146619;679;46020;-77
2023/04/01 00:29:28;;;;;;;;;4.00;2.25;;;;;15.98;48.14;100456.91;146618;570;46016;-76
2023/04/01 00:32:34;;;;;;;;;3.00;3.00;;;;;15.91;47.74;100448.00;146619;573;46021;-77
2023/04/01 00:35:35;;;;;;;;;5.75;4.50;;;;;15.84;48.26;100455.66;146616;618;47012;-78
2023/04/01 00:38:36;;;;;;;;;7.00;3.00;;;;;15.78;47.69;100443.31;146620;618;46020;-77
2023/04/01 00:41:35;;;;;;;;;4.00;4.00;;;;;15.75;48.57;100445.84;146619;592;47012;-75
2023/04/01 00:44:49;;;;;;;;;3.75;1.00;;;;;15.70;47.60;100445.75;146618;577;46010;-76
2023/04/01 00:48:00;;;;;;;;;2.75;2.50;;;;;15.68;48.06;100450.03;146618;645;46916;-76
2023/04/01 00:51:17;;;;;;;;;4.00;3.00;;;;;14.95;47.77;100325.28;146619;578;46020;-76
2023/04/01 00:54:25;;;;;;;;;5.50;2.75;;;;;15.56;48.38;100439.25;146615;586;46017;-77
2023/04/01 00:57:50;;;;;;;;;5.00;2.75;;;;;14.76;47.81;100300.41;146621;600;46010;-79
2023/04/01 01:00:58;;;;;;;;;;;;;;;;;;;;;
2023/04/01 01:04:02;;;;;;;;;5.00;3.75;;;;;15.51;49.54;100433.00;146623;577;46020;-76
2023/04/01 01:07:39;;;;;;;;;2.75;2.75;;;;;15.46;47.85;100426.78;146618;575;47012;-76
2023/04/01 01:10:47;;;;;;;;;3.25;3.00;;;;;15.47;49.07;100436.38;146621;642;46031;-78
2023/04/01 01:13:58;;;;;;;;;4.25;2.75;;;;;15.51;48.27;100427.75;146617;579;46015;-74
2023/04/01 01:17:19;;;;;;;;;5.50;3.75;;;;;15.53;47.71;100428.69;146621;570;46020;-76
2023/04/01 01:20:57;;;;;;;;;5.25;4.50;;;;;14.19;47.55;100199.66;146617;600;46016;-76
2023/04/01 01:24:30;;;;;;;;;4.75;4.50;;;;;15.53;48.65;100426.09;146623;649;46025;-76
2023/04/01 01:27:26;;;;;;;;;3.00;1.75;;;;;15.50;49.50;100407.72;146617;609;46012;-76
2023/04/01 01:31:13;;;;;;;;;4.75;3.25;;;;;14.07;49.10;100163.69;146619;647;46020;-75
2023/04/01 01:34:45;;;;;;;;;;;;;;;;;;;;;
2023/04/01 01:37:58;;;;;;;;;3.50;2.00;;;;;15.43;49.04;100406.66;146620;650;46021;-78
2023/04/01 01:41:13;;;;;;;;;5.50;5.00;;;;;15.47;48.46;100418.09;146616;590;46016;-74
2023/04/01 01:44:19;;;;;;;;;3.50;3.50;;;;;15.48;49.27;100412.00;146622;581;46021;-74
2023/04/01 01:47:25;;;;;;;;;2.75;2.75;;;;;15.48;50.07;100412.91;146621;602;46012;-74
2023/04/01 01:50:42;;;;;;;;;4.50;4.00;;;;;15.47;48.68;100397.19;146617;621;47012;-74
2023/04/01 01:53:33;;;;;;;;;7.75;6.25;;;;;15.47;49.49;100397.19;146618;592;47012;-75
2023/04/01 01:56:36;;;;;;;;;4.00;3.25;;;;;15.45;49.58;100394.53;146623;582;47010;-77
2023/04/01 01:59:36;;;;;;;;;4.50;2.00;;;;;15.44;49.42;100403.22;146615;663;46016;-74
2023/04/01 02:02:37;;;;;;;;;5.00;3.50;;;;;15.44;49.66;100407.56;146622;640;46010;-74
2023/04/01 02:06:01;;;;;;;;;4.25;3.50;;;;;15.50;48.76;100393.78;146610;583;47922;-73
2023/04/01 02:09:07;;;;;;;;;3.00;3.00;;;;;15.54;48.81;100385.16;146619;564;46012;-74
2023/04/01 02:12:16;;;;;;;;;4.00;3.00;;;;;15.59;47.97;100381.81;146615;745;46012;-75
2023/04/01 02:15:24;;;;;;;;;5.00;3.00;;;;;15.67;48.17;100374.22;146620;564;46026;-80
2023/04/01 02:18:21;;;;;;;;;0.25;0.00;;;;;15.76;47.69;100370.94;146617;579;46016;-71
2023/04/01 02:21:28;;;;;;;;;2.25;2.25;;;;;15.81;47.86;100375.44;146615;579;46020;-73
2023/04/01 02:24:27;;;;;;;;;2.00;2.00;;;;;15.89;46.94;100365.16;146618;610;46014;-75
2023/04/01 02:27:24;;;;;;;;;1.00;1.00;;;;;15.38;46.66;100263.69;146619;576;46020;-76
2023/04/01 02:30:42;;;;;;;;;1.50;1.00;;;;;16.10;46.24;100373.50;146618;597;46013;-74
2023/04/01 02:33:58;;;;;;;;;1.00;1.00;;;;;14.87;45.25;100133.66;146621;569;46012;-74
2023/04/01 02:36:56;;;;;;;;;4.25;2.25;;;;;16.29;46.03;100366.97;146616;644;46017;-74
2023/04/01 02:40:00;;;;;;;;;3.00;2.50;;;;;16.31;45.93;100364.38;146621;580;46010;-75
2023/04/01 02:42:58;;;;;;;;;3.00;3.00;;;;;16.33;46.53;100368.81;146617;614;46012;-76
2023/04/01 02:45:50;;;;;;;;;3.25;2.75;;;;;16.32;46.89;100364.44;146623;616;46021;-75
2023/04/01 02:48:45;;;;;;;;;4.50;2.75;;;;;16.31;46.61;100374.84;146618;620;46016;-73
2023/04/01 02:51:44;;;;;;;;;4.25;2.50;;;;;16.29;47.16;100364.38;146619;590;46010;-73
2023/04/01 02:54:40;;;;;;;;;3.25;1.75;;;;;16.27;47.14;100367.78;146619;668;46916;-74
2023/04/01 02:57:49;;;;;;;;;2.50;2.50;;;;;16.24;47.36;100372.94;146623;577;46020;-73
2023/04/01 03:00:47;;;;;;;;;5.25;3.75;;;;;16.20;47.11;100376.31;146619;599;46016;-74
2023/04/01 03:03:52;;;;;;;;;;;;;;;;;;;;;
2023/04/01 03:06:53;;;;;;;;;57.25;43.75;;;;;16.07;47.53;100365.56;146618;577;47014;-73
2023/04/01 03:09:48;;;;;;;;;9.50;8.25;;;;;16.00;48.14;100360.19;146619;575;46020;-74
2023/04/01 03:12:49;;;;;;;;;3.75;3.75;;;;;15.90;47.66;100357.34;146617;580;46016;-73
2023/04/01 03:15:53;;;;;;;;;6.00;4.50;;;;;15.82;48.30;100344.94;146621;584;46021;-75
2023/04/01 03:18:49;;;;;;;;;5.75;5.00;;;;;15.73;49.04;100323.81;146616;624;47012;-75
2023/04/01 03:21:47;;;;;;;;;28.25;23.00;;;;;15.64;49.36;100320.09;146620;596;46010;-76
2023/04/01 03:24:43;;;;;;;;;50.50;36.50;;;;;15.59;49.37;100313.88;146618;576;46012;-75
2023/04/01 03:27:54;;;;;;;;;;;;;;;;;;;;;
2023/04/01 03:30:52;;;;;;;;;13.00;9.75;;;;;15.55;48.60;100321.63;146617;588;46016;-75
2023/04/01 03:34:04;;;;;;;;;12.50;8.25;;;;;15.52;47.94;100332.88;146621;585;46020;-75
2023/04/01 03:37:09;;;;;;;;;60.00;45.50;;;;;15.56;50.01;100329.47;146618;639;46017;-74
2023/04/01 03:40:08;;;;;;;;;21.00;15.00;;;;;15.53;50.23;100323.28;146620;618;47010;-74
2023/04/01 03:43:09;;;;;;;;;12.50;11.75;;;;;15.44;49.31;100318.72;146618;579;46012;-74
2023/04/01 03:46:38;;;;;;;;;7.25;6.25;;;;;15.37;49.75;100312.47;146620;640;46010;-73
2023/04/01 03:49:33;;;;;;;;;5.25;4.50;;;;;15.32;50.18;100303.62;146617;572;46028;-72
2023/04/01 03:52:32;;;;;;;;;202.25;149.75;;;;;15.27;50.11;100299.16;146624;570;46021;-73
2023/04/01 03:55:40;;;;;;;;;86.50;58.00;;;;;15.27;50.02;100304.38;146616;577;46016;-76
2023/04/01 03:58:44;;;;;;;;;51.25;38.50;;;;;15.29;50.44;100313.09;146616;571;46012;-76
2023/04/01 04:01:41;;;;;;;;;34.25;22.00;;;;;15.32;49.98;100308.84;146615;569;46030;-77
2023/04/01 04:04:36;;;;;;;;;33.75;21.00;;;;;15.38;49.58;100313.34;146617;588;46020;-78
2023/04/01 04:07:32;;;;;;;;;14.25;12.25;;;;;15.45;49.46;100310.03;146617;573;46016;-74
2023/04/01 04:10:29;;;;;;;;;12.25;8.75;;;;;15.48;49.62;100305.78;146620;635;46020;-74
2023/04/01 04:13:45;;;;;;;;;9.75;5.50;;;;;15.46;49.67;100296.12;146616;606;46014;-76
2023/04/01 04:16:50;;;;;;;;;19.50;13.50;;;;;15.51;49.00;100291.00;146619;666;46020;-76
2023/04/01 04:19:43;;;;;;;;;11.75;11.25;;;;;15.52;49.66;100290.19;146615;569;46016;-78
2023/04/01 04:22:40;;;;;;;;;15.00;10.25;;;;;15.51;49.34;100281.44;146619;590;46012;-72
2023/04/01 04:25:38;;;;;;;;;14.00;11.75;;;;;15.52;49.72;100283.22;146614;626;47012;-72
2023/04/01 04:28:40;;;;;;;;;11.50;7.75;;;;;15.54;50.04;100285.84;146619;579;46021;-73
2023/04/01 04:31:42;;;;;;;;;10.50;8.50;;;;;15.52;49.97;100287.56;146617;634;46012;-74
2023/04/01 04:34:45;;;;;;;;;7.75;7.25;;;;;15.52;49.63;100296.28;146618;599;48011;-74
2023/04/01 04:37:48;;;;;;;;;6.75;6.25;;;;;15.55;48.93;100296.38;146617;602;46016;-72
2023/04/01 04:40:47;;;;;;;;;6.50;6.00;;;;;15.57;48.67;100297.25;146620;600;46020;-73
2023/04/01 04:43:48;;;;;;;;;7.50;5.50;;;;;15.62;48.99;100297.38;146615;606;46017;-73
2023/04/01 04:46:50;;;;;;;;;7.00;7.00;;;;;15.66;48.80;100304.44;146621;615;46020;-74
2023/04/01 04:49:46;;;;;;;;;6.00;6.00;;;;;15.69;48.57;100310.66;146617;586;47015;-75
2023/04/01 04:52:41;;;;;;;;;8.00;5.50;;;;;15.76;48.91;100300.34;146621;639;46020;-73
2023/04/01 04:55:40;;;;;;;;;8.00;7.25;;;;;15.80;48.25;100300.47;146617;576;46016;-76
2023/04/01 04:58:38;;;;;;;;;7.25;6.00;;;;;15.85;48.26;100301.44;146620;682;46020;-76
2023/04/01 05:01:37;;;;;;;;;9.00;7.25;;;;;15.90;47.34;100288.50;146617;614;46016;-77
2023/04/01 05:04:36;;;;;;;;;7.25;6.75;;;;;15.96;47.47;100283.41;146618;585;46021;-78
2023/04/01 05:07:34;;;;;;;;;9.00;7.00;;;;;16.01;47.32;100276.56;146613;582;46016;-76
2023/04/01 05:10:35;;;;;;;;;6.50;4.00;;;;;15.47;47.22;100172.47;146621;620;47010;-76
2023/04/01 05:13:31;;;;;;;;;4.00;3.50;;;;;16.15;46.83;100269.00;146620;619;46017;-77
2023/04/01 05:16:36;;;;;;;;;2.25;2.25;;;;;16.23;46.86;100262.19;146620;691;46020;-77
2023/04/01 05:19:32;;;;;;;;;6.50;4.75;;;;;16.32;47.31;100259.78;146617;591;46017;-74
2023/04/01 05:22:27;;;;;;;;;15.75;15.00;;;;;16.38;47.47;100243.28;146621;597;47010;-75
2023/04/01 05:25:36;;;;;;;;;8.50;5.50;;;;;16.42;46.75;100260.84;146615;625;46012;-76
2023/04/01 05:28:38;;;;;;;;;5.00;4.00;;;;;16.45;47.56;100257.37;146619;596;46021;-77
2023/04/01 05:31:30;;;;;;;;;18.75;17.75;;;;;15.86;46.62;100155.94;146617;629;46016;-75
2023/04/01 05:34:32;;;;;;;;;9.50;9.50;;;;;16.51;47.06;100252.25;146619;678;46021;-75
2023/04/01 05:37:25;;;;;;;;;11.50;9.25;;;;;16.54;49.01;100254.94;146618;609;46014;-75
2023/04/01 05:40:20;;;;;;;;;13.25;9.50;;;;;16.54;47.93;100247.09;146618;594;46020;-76
2023/04/01 05:43:33;;;;;;;;;12.25;10.75;;;;;16.57;48.21;100260.22;146618;618;47014;-77
2023/04/01 05:46:34;;;;;;;;;11.25;10.25;;;;;16.61;49.14;100262.09;146621;644;46029;-76
2023/04/01 05:49:40;;;;;;;;;12.25;9.25;;;;;16.63;47.93;100276.97;146608;621;46875;-76
2023/04/01 05:52:40;;;;;;;;;14.25;13.25;;;;;16.69;47.85;100272.69;146616;632;46020;-74
2023/04/01 05:55:39;;;;;;;;;12.75;12.00;;;;;16.76;48.85;100265.03;146614;590;46918;-76
2023/04/01 05:58:32;;;;;;;;;18.00;13.50;;;;;16.81;47.65;100262.47;146616;594;46020;-78
2023/04/01 06:01:28;;;;;;;;;20.25;18.50;;;;;16.85;48.48;100265.19;146615;572;46012;-78
2023/04/01 06:04:46;;;;;;;;;16.50;14.25;;;;;16.92;47.56;100254.84;146617;602;46021;-78
2023/04/01 06:07:43;;;;;;;;;20.50;17.25;;;;;16.97;48.78;100264.50;146616;575;46016;-78
2023/04/01 06:11:21;;;;;;;;;19.00;16.25;;;;;16.38;47.15;100162.19;146619;644;46020;-75
2023/04/01 06:15:00;;;;;;;;;17.75;16.75;;;;;17.12;47.20;100287.50;146616;577;46016;-75
2023/04/01 06:18:46;;;;;;;;;17.75;14.25;;;;;16.27;47.02;100100.94;146617;614;46020;-78
2023/04/01 06:22:21;;;;;;;;;10.25;9.50;;;;;17.83;45.64;100305.28;146616;615;46016;-77
2023/04/01 06:26:16;;;;;;;;;6.00;6.00;;;;;17.19;44.64;100091.97;146620;565;46020;-77
2023/04/01 06:29:48;;;;;;;;;4.75;4.75;;;;;18.22;42.96;100172.87;146617;593;46014;-77
2023/04/01 06:33:48;;;;;;;;;5.00;3.00;;;;;19.50;42.17;100302.03;146622;685;46021;-78
2023/04/01 06:37:36;;;;;;;;;2.00;1.00;;;;;18.79;41.80;100082.44;146619;628;46916;-78
2023/04/01 06:41:19;;;;;;;;;2.75;1.00;;;;;20.48;41.28;100292.09;146618;592;46021;-77
2023/04/01 06:44:57;;;;;;;;;0.75;0.50;;;;;19.69;39.93;100086.47;146613;569;47012;-77
2023/04/01 06:48:54;;;;;;;;;3.00;3.00;;;;;21.16;39.86;100280.00;146621;663;46012;-79
2023/04/01 06:52:35;;;;;;;;;1.25;1.00;;;;;20.44;39.98;100091.97;146618;676;46915;-76
2023/04/01 06:56:04;;;;;;;;;3.75;3.00;;;;;21.17;39.23;100157.84;146618;572;47010;-75
2023/04/01 06:59:29;;;;;;;;;0.67;0.67;;;;;20.68;38.71;100031.38;146619;643;46012;-76
2023/04/01 07:02:47;;;;;;;;;3.00;2.00;;;;;20.86;39.17;100030.50;146620;590;47010;-74
2023/04/01 07:05:46;;;;;;;;;3.00;3.00;;;;;22.27;37.28;100235.88;146619;580;46916;-75
2023/04/01 07:08:54;;;;;;;;;4.00;2.00;;;;;22.37;37.18;100231.47;146622;629;46020;-76
2023/04/01 07:11:58;;;;;;;;;3.00;3.00;;;;;22.45;36.35;100249.91;146618;581;47012;-76
2023/04/01 07:15:08;;;;;;;;;3.25;2.75;;;;;22.40;37.09;100246.41;146622;662;46010;-77
2023/04/01 07:18:12;;;;;;;;;2.33;2.00;;;;;22.36;36.29;100235.84;146617;577;47014;-74
2023/04/01 07:21:27;;;;;;;;;;;;;;;;;;;;;
2023/04/01 07:24:36;;;;;;;;;1.67;1.67;;;;;22.40;37.09;100193.56;146617;577;46017;-72
2023/04/01 07:27:42;;;;;;;;;3.00;1.00;;;;;22.45;37.12;100186.50;146622;578;46020;-73
2023/04/01 07:31:08;;;;;;;;;1.00;1.00;;;;;22.53;36.28;100182.94;146617;566;46016;-73
2023/04/01 07:34:32;;;;;;;;;2.33;2.00;;;;;22.75;38.00;100180.16;146620;576;47010;-74
2023/04/01 07:38:09;;;;;;;;;2.00;0.33;;;;;23.01;37.89;100174.69;146617;634;46014;-73
2023/04/01 07:41:48;;;;;;;;;4.00;2.33;;;;;22.25;38.24;99980.66;146622;616;46010;-73
2023/04/01 07:45:41;;;;;;;;;5.00;3.67;;;;;22.60;36.42;99983.81;146618;618;46016;-73
2023/04/01 07:49:16;;;;;;;;;1.67;1.33;;;;;23.37;36.25;100066.78;146619;642;46020;-73
2023/04/01 07:53:02;;;;;;;;;4.00;2.00;;;;;22.92;37.19;99942.97;146618;612;46029;-73
2023/04/01 07:56:40;;;;;;;;;3.00;2.00;;;;;23.19;37.00;99928.56;146621;580;46010;-73
2023/04/01 08:00:21;;;;;;;;;3.67;2.33;;;;;22.98;36.18;99858.31;146620;630;46014;-73
2023/04/01 08:03:54;;;;;;;;;2.00;2.00;;;;;23.61;36.22;99931.50;146622;631;46020;-74
2023/04/01 08:07:40;;;;;;;;;2.67;2.67;;;;;24.27;36.18;100011.72;146620;593;46016;-75
2023/04/01 08:11:22;;;;;;;;;4.00;3.00;;;;;23.72;36.37;99920.81;146619;640;46020;-74
2023/04/01 08:14:55;;;;;;;;;3.67;2.00;;;;;24.92;35.74;100121.09;146617;624;46016;-73
2023/04/01 08:18:21;;;;;;;;;5.00;2.00;;;;;23.93;36.16;99906.34;146620;570;46030;-74
2023/04/01 08:21:52;;;;;;;;;4.00;3.00;;;;;24.15;36.36;99917.47;146617;605;46915;-73
2023/04/01 08:24:57;;;;;;;;;6.67;4.00;;;;;25.26;33.79;100105.50;146619;642;46021;-73
2023/04/01 08:29:03;;;;;;;;;3.00;3.00;;;;;24.61;35.84;100015.62;146617;581;47012;-74
2023/04/01 08:32:33;;;;;;;;;3.00;3.00;;;;;24.91;36.24;100095.50;146620;622;46021;-74
2023/04/01 08:36:01;;;;;;;;;2.00;2.00;;;;;24.86;36.43;100084.13;146618;583;46016;-75
2023/04/01 08:39:26;;;;;;;;;2.67;2.00;;;;;23.69;36.71;99903.19;146621;603;46034;-74
2023/04/01 08:43:02;;;;;;;;;4.00;3.00;;;;;24.31;36.89;99994.91;146632;621;45012;-73
2023/04/01 08:46:34;;;;;;;;;2.75;2.75;;;;;23.49;36.92;99865.56;146635;578;45020;-73
2023/04/01 08:50:03;;;;;;;;;3.33;3.33;;;;;24.47;36.98;100075.91;146632;629;45012;-73
2023/04/01 08:53:29;;;;;;;;;2.67;2.67;;;;;24.20;37.45;100071.88;146638;647;44914;-74
2023/04/01 08:57:08;;;;;;;;;3.00;3.00;;;;;24.09;37.72;100084.41;146630;576;45918;-73
2023/04/01 09:00:58;;;;;;;;;4.67;2.00;;;;;24.18;37.63;100071.91;146631;609;45020;-73
2023/04/01 09:04:29;;;;;;;;;3.00;3.00;;;;;24.45;37.85;100069.75;146633;563;45012;-75
2023/04/01 09:08:06;;;;;;;;;1.33;1.00;;;;;24.85;37.07;100054.03;146635;595;45020;-73
2023/04/01 09:11:32;;;;;;;;;0.33;0.00;;;;;24.20;36.05;99857.31;146633;587;45033;-74
2023/04/01 09:15:21;;;;;;;;;2.00;1.67;;;;;24.55;35.79;99859.34;146637;587;45020;-74
2023/04/01 09:19:13;;;;;;;;;3.00;2.00;;;;;24.79;36.26;99844.69;146633;569;45016;-73
2023/04/01 09:23:08;;;;;;;;;4.67;2.67;;;;;24.62;36.30;99770.84;146633;612;46010;-76
2023/04/01 09:26:38;;;;;;;;;4.00;2.00;;;;;26.17;35.64;100021.31;146635;575;46012;-76
2023/04/01 09:30:11;;;;;;;;;1.67;1.33;;;;;26.42;35.52;100013.59;146638;615;45010;-77
2023/04/01 09:33:41;;;;;;;;;5.33;3.00;;;;;26.64;34.44;100005.97;146634;631;45030;-74
2023/04/01 09:37:17;;;;;;;;;3.00;3.00;;;;;26.63;35.17;100002.41;146638;647;45020;-73
2023/04/01 09:40:46;;;;;;;;;5.33;4.33;;;;;26.72;33.96;99990.69;146624;583;47012;-76
2023/04/01 09:44:28;;;;;;;;;3.00;3.00;;;;;26.64;34.07;99982.91;146623;593;46010;-76
2023/04/01 09:48:01;;;;;;;;;2.67;1.67;;;;;26.42;34.25;99976.38;146620;622;46021;-77
2023/04/01 09:51:55;;;;;;;;;2.00;1.67;;;;;25.34;33.37;99790.44;146620;602;46022;-77
2023/04/01 09:55:13;;;;;;;;;3.33;2.67;;;;;26.39;34.91;99976.47;146617;570;46916;-75
2023/04/01 09:58:42;;;;;;;;;2.00;2.00;;;;;26.22;33.92;99979.53;146621;584;46020;-77
2023/04/01 10:02:20;;;;;;;;;4.00;2.00;;;;;26.16;33.55;99966.41;146617;674;46016;-76
2023/04/01 10:06:13;;;;;;;;;4.00;3.00;;;;;26.12;34.59;99983.34;146622;620;46010;-77
2023/04/01 10:10:04;;;;;;;;;4.33;2.67;;;;;24.99;33.14;99785.06;146618;652;46019;-77
2023/04/01 10:14:02;;;;;;;;;1.67;1.67;;;;;26.11;33.66;99982.47;146619;600;46010;-76
2023/04/01 10:17:31;;;;;;;;;2.33;2.33;;;;;26.31;34.46;99968.69;146615;604;46016;-77
2023/04/01 10:21:12;;;;;;;;;3.33;2.33;;;;;26.62;31.89;99975.88;146622;563;46020;-77
2023/04/01 10:24:54;;;;;;;;;5.00;3.00;;;;;26.75;32.31;99966.66;146619;588;46019;-76
2023/04/01 10:28:23;;;;;;;;;2.33;1.33;;;;;26.73;32.57;99960.53;146620;624;46020;-75
2023/04/01 10:31:57;;;;;;;;;2.67;1.00;;;;;26.75;30.95;99944.50;146620;593;46014;-75
2023/04/01 10:35:28;;;;;;;;;2.00;2.00;;;;;26.66;31.86;99937.66;146620;652;46020;-76
2023/04/01 10:39:05;;;;;;;;;3.00;2.33;;;;;25.53;32.10;99759.00;146620;579;46013;-76
2023/04/01 10:42:49;;;;;;;;;3.00;1.67;;;;;26.61;32.95;99937.78;146638;569;45010;-77
2023/04/01 10:46:21;;;;;;;;;1.00;1.00;;;;;26.57;34.26;99938.78;146630;584;46012;-76
2023/04/01 10:49:59;;;;;;;;;3.33;3.00;;;;;26.38;32.40;99921.53;146635;652;45046;-76
2023/04/01 10:53:24;;;;;;;;;2.00;2.00;;;;;26.22;34.43;99935.22;146632;643;45017;-75
2023/04/01 10:57:01;;;;;;;;;4.00;3.33;;;;;25.15;34.95;99778.53;146638;604;45010;-78
2023/04/01 11:00:37;;;;;;;;;6.00;4.33;;;;;25.95;35.03;99939.47;146631;647;45014;-75
2023/04/01 11:04:08;;;;;;;;;4.67;4.00;;;;;25.48;34.10;99941.41;146638;639;45010;-76
2023/04/01 11:07:40;;;;;;;;;3.33;3.00;;;;;24.98;35.62;99931.81;146635;585;45012;-76
2023/04/01 11:11:17;;;;;;;;;4.00;3.00;;;;;24.56;35.70;99927.34;146638;623;45010;-76
2023/04/01 11:15:33;;;;;;;;;4.00;3.00;;;;;24.16;35.71;99913.91;146635;629;45017;-76
2023/04/01 11:19:21;;;;;;;;;2.75;2.75;;;;;23.03;36.04;99760.44;146636;577;45010;-74
2023/04/01 11:22:46;;;;;;;;;4.00;3.00;;;;;24.08;36.44;99931.69;146635;594;45905;-73
2023/04/01 11:26:21;;;;;;;;;5.00;2.00;;;;;23.23;37.05;99755.72;146631;705;45020;-73
2023/04/01 11:29:59;;;;;;;;;3.00;3.00;;;;;23.67;35.65;99738.19;146635;601;45017;-76
2023/04/01 11:34:06;;;;;;;;;3.00;2.00;;;;;24.01;35.74;99727.03;146634;580;45020;-75
2023/04/01 11:37:29;;;;;;;;;3.67;2.00;;;;;25.54;34.20;99921.81;146633;634;45897;-74
2023/04/01 11:41:11;;;;;;;;;5.67;4.33;;;;;25.09;35.02;99827.25;146630;586;46030;-75
2023/04/01 11:44:27;;;;;;;;;2.67;2.67;;;;;25.51;32.63;99922.78;146620;645;46017;-73
2023/04/01 11:47:56;;;;;;;;;3.67;2.67;;;;;25.23;34.55;99911.88;146623;682;46010;-74
2023/04/01 11:51:26;;;;;;;;;4.33;2.00;;;;;24.93;34.52;99901.91;146619;591;46016;-72
2023/04/01 11:54:48;;;;;;;;;2.67;2.33;;;;;24.66;35.13;99909.47;146622;611;46023;-73
2023/04/01 11:58:31;;;;;;;;;3.33;3.33;;;;;23.21;35.12;99704.63;146618;566;46035;-72
2023/04/01 12:02:10;;;;;;;;;2.67;1.67;;;;;24.19;34.31;99920.00;146622;572;46020;-73
2023/04/01 12:05:58;;;;;;;;;2.00;1.00;;;;;22.42;34.65;99655.59;146618;633;47014;-72
2023/04/01 12:09:43;;;;;;;;;3.67;2.00;;;;;22.77;35.17;99729.97;146622;566;47010;-72
2023/04/01 12:13:44;;;;;;;;;2.00;2.00;;;;;22.82;36.32;99780.97;146617;615;46016;-73
2023/04/01 12:17:11;;;;;;;;;3.00;3.00;;;;;23.50;36.52;99896.41;146621;570;46010;-73
2023/04/01 12:20:42;;;;;;;;;2.25;2.25;;;;;23.66;36.62;99892.63;146615;602;46018;-73
2023/04/01 12:24:15;;;;;;;;;2.67;2.67;;;;;23.98;35.33;99880.66;146621;630;46020;-74
2023/04/01 12:28:13;;;;;;;;;;;;;;;;;;;;;
2023/04/01 12:32:00;;;;;;;;;3.00;3.00;;;;;23.74;35.34;99689.59;146622;566;46020;-72
2023/04/01 12:35:40;;;;;;;;;2.33;2.33;;;;;24.02;35.03;99683.78;146620;593;47012;-74
2023/04/01 12:39:31;;;;;;;;;4.00;3.00;;;;;24.40;33.67;99693.53;146621;579;47012;-72
2023/04/01 12:43:32;;;;;;;;;2.00;2.00;;;;;24.47;33.99;99675.78;146634;622;46013;-73
2023/04/01 12:47:02;;;;;;;;;4.00;3.67;;;;;25.56;34.34;99832.41;146636;668;45020;-73
2023/04/01 12:50:53;;;;;;;;;;;;;;;;;;;;;
2023/04/01 12:54:41;;;;;;;;;2.00;2.00;;;;;24.94;33.63;99664.97;146636;590;45020;-72
2023/04/01 12:58:12;;;;;;;;;3.00;2.33;;;;;26.06;32.91;99821.44;146632;591;45918;-73
2023/04/01 13:02:06;;;;;;;;;2.00;2.00;;;;;25.16;33.64;99647.62;146633;622;46010;-73
2023/04/01 13:06:05;;;;;;;;;3.67;3.00;;;;;25.29;33.79;99664.97;146629;588;45027;-73
2023/04/01 13:09:38;;;;;;;;;3.00;2.33;;;;;25.09;32.25;99623.00;146632;636;46020;-73
2023/04/01 13:13:15;;;;;;;;;4.00;2.00;;;;;25.06;32.79;99625.75;146634;566;45017;-74
2023/04/01 13:16:21;;;;;;;;;2.67;2.00;;;;;26.16;31.48;99814.94;146634;584;45020;-72
2023/04/01 13:19:41;;;;;;;;;3.67;2.67;;;;;26.08;31.72;99823.13;146633;563;46012;-73
2023/04/01 13:23:04;;;;;;;;;3.00;3.00;;;;;25.97;31.83;99802.16;146632;573;45021;-72
2023/04/01 13:26:35;;;;;;;;;6.00;3.67;;;;;25.97;32.25;99809.25;146629;578;45917;-72
2023/04/01 13:30:14;;;;;;;;;;;;;;;;;;;;;
2023/04/01 13:33:44;;;;;;;;;6.00;4.33;;;;;25.94;32.17;99782.78;146630;681;46012;-72
2023/04/01 13:37:26;;;;;;;;;5.33;5.33;;;;;24.57;32.92;99549.22;146636;578;45914;-72
2023/04/01 13:41:01;;;;;;;;;8.00;8.00;;;;;25.31;31.62;99684.38;146628;585;45016;-73
2023/04/01 13:44:44;;;;;;;;;6.00;4.67;;;;;25.33;32.51;99705.59;146623;569;46021;-72
2023/04/01 13:48:28;;;;;;;;;5.33;5.33;;;;;25.56;32.81;99750.09;146619;635;46012;-74
2023/04/01 13:52:03;;;;;;;;;6.75;6.75;;;;;25.74;32.99;99812.50;146623;684;46020;-72
2023/04/01 13:55:31;;;;;;;;;7.00;6.00;;;;;25.53;32.80;99812.09;146619;592;46016;-73
2023/04/01 13:59:02;;;;;;;;;3.00;3.00;;;;;25.44;31.78;99800.84;146624;593;46021;-72
2023/04/01 14:02:54;;;;;;;;;4.33;4.00;;;;;24.37;31.61;99621.22;146619;588;46016;-72
2023/04/01 14:06:27;;;;;;;;;1.33;1.33;;;;;24.34;32.84;99611.56;146622;598;46021;-73
2023/04/01 14:10:13;;;;;;;;;5.67;4.67;;;;;24.86;33.25;99712.88;146620;578;46016;-74
2023/04/01 14:13:45;;;;;;;;;5.00;3.00;;;;;24.29;33.63;99613.41;146623;658;47011;-73
2023/04/01 14:17:09;;;;;;;;;3.00;3.00;;;;;25.37;33.75;99783.34;146713;569;46014;-73
2023/04/01 14:21:05;;;;;;;;;3.00;2.00;;;;;24.87;33.86;99696.06;146626;630;46013;-73
2023/04/01 14:24:39;;;;;;;;;2.00;1.33;;;;;24.32;33.90;99597.47;146628;660;46020;-73
2023/04/01 14:28:14;;;;;;;;;4.00;3.00;;;;;25.31;33.37;99777.25;146628;593;46012;-73
2023/04/01 14:31:49;;;;;;;;;3.00;3.00;;;;;25.24;33.19;99788.06;146627;577;46020;-73
2023/04/01 14:35:24;;;;;;;;;2.00;2.00;;;;;25.16;34.32;99785.56;146622;622;47017;-74
2023/04/01 14:38:58;;;;;;;;;3.00;2.67;;;;;25.23;34.36;99792.47;146630;577;46020;-74
2023/04/01 14:42:53;;;;;;;;;3.67;3.67;;;;;25.17;34.29;99789.09;146627;581;46017;-73
2023/04/01 14:46:22;;;;;;;;;4.00;4.00;;;;;25.18;33.70;99780.25;146626;658;47010;-72
2023/04/01 14:49:57;;;;;;;;;2.00;2.00;;;;;25.10;32.53;99796.28;146628;602;46013;-73
2023/04/01 14:53:24;;;;;;;;;4.00;2.33;;;;;24.98;33.83;99781.53;146633;603;45020;-73
2023/04/01 14:56:59;;;;;;;;;3.00;3.00;;;;;24.83;33.87;99779.25;146627;629;46016;-72
2023/04/01 15:00:25;;;;;;;;;5.00;3.00;;;;;24.74;34.32;99790.91;146625;601;46020;-72
2023/04/01 15:03:46;;;;;;;;;4.00;3.00;;;;;24.68;33.37;99779.59;146626;671;46017;-72
2023/04/01 15:07:18;;;;;;;;;4.00;2.00;;;;;24.63;33.47;99791.12;146631;593;46010;-72
2023/04/01 15:10:54;;;;;;;;;4.33;2.67;;;;;24.56;33.73;99765.66;146620;580;47012;-73
2023/04/01 15:14:46;;;;;;;;;3.00;3.00;;;;;24.51;34.51;99778.13;146630;571;46010;-72
2023/04/01 15:18:10;;;;;;;;;3.67;2.00;;;;;24.47;33.97;99776.47;146641;618;45017;-71
2023/04/01 15:21:51;;;;;;;;;6.33;3.00;;;;;24.38;34.20;99777.47;146645;613;45020;-72
2023/04/01 15:25:40;;;;;;;;;2.67;2.67;;;;;24.01;34.77;99734.09;146640;591;45018;-72
2023/04/01 15:29:09;;;;;;;;;4.33;2.33;;;;;24.23;34.68;99793.69;146643;649;45020;-72
2023/04/01 15:32:48;;;;;;;;;4.00;2.33;;;;;24.12;34.81;99785.09;146641;644;44912;-72
2023/04/01 15:36:19;;;;;;;;;5.33;3.00;;;;;23.97;35.39;99788.88;146643;582;45039;-72
2023/04/01 15:39:55;;;;;;;;;5.67;4.00;;;;;23.92;35.30;99782.78;146643;647;45016;-71
2023/04/01 15:43:30;;;;;;;;;4.00;3.00;;;;;23.91;35.12;99786.34;146646;584;45010;-75
2023/04/01 15:47:02;;;;;;;;;2.33;2.33;;;;;23.77;34.82;99777.78;146637;593;47012;-74
2023/04/01 15:50:38;;;;;;;;;3.00;3.00;;;;;23.69;35.19;99788.50;146647;590;45010;-70
2023/04/01 15:54:13;;;;;;;;;4.33;2.33;;;;;22.96;35.37;99688.28;146642;584;46014;-69
2023/04/01 15:57:58;;;;;;;;;2.33;2.00;;;;;23.50;35.11;99796.72;146644;585;45021;-71
2023/04/01 16:01:39;;;;;;;;;3.00;3.00;;;;;23.47;35.56;99811.78;146643;621;45012;-70